sensor_id;sensor_type;location;lat;lon;timestamp;temperature;humidity
5786;DHT22;2919;48.630;9.000;2023-04-25T00:00:06;7.40;99.90
5786;DHT22;2919;48.630;9.000;2023-04-25T00:02:33;7.40;99.90
5786;DHT22;2919;48.630;9.000;2023-04-25T00:05:00;7.40;99.90
5786;DHT22;2919;48.630;9.000;2023-04-25T00:07:27;7.30;99.90
5786;DHT22;2919;48.630;9.000;2023-04-25T00:09:52;7.30;99.90
5786;DHT22;2919;48.630;9.000;2023-04-25T00:12:18;7.30;99.90
5786;DHT22;2919;48.630;9.000;2023-04-25T00:14:44;7.30;99.90
5786;DHT22;2919;48.630;9.000;2023-04-25T00:17:10;7.30;99.90
5786;DHT22;2919;48.630;9.000;2023-04-25T00:19:36;7.30;99.90
5786;DHT22;2919;48.630;9.000;2023-04-25T00:22:03;7.20;99.90
5786;DHT22;2919;48.630;9.000;2023-04-25T00:24:29;7.20;99.90
5786;DHT22;2919;48.630;9.000;2023-04-25T00:26:54;7.30;99.90
5786;DHT22;2919;48.630;9.000;2023-04-25T00:29:20;7.20;99.90
5786;DHT22;2919;48.630;9.000;2023-04-25T00:31:45;7.20;99.90
5786;DHT22;2919;48.630;9.000;2023-04-25T00:34:11;7.20;99.90
5786;DHT22;2919;48.630;9.000;2023-04-25T00:36:36;7.10;99.90
5786;DHT22;2919;48.630;9.000;2023-04-25T00:39:03;7.10;99.90
5786;DHT22;2919;48.630;9.000;2023-04-25T00:41:30;7.10;99.90
5786;DHT22;2919;48.630;9.000;2023-04-25T00:43:56;7.10;99.90
5786;DHT22;2919;48.630;9.000;2023-04-25T00:46:23;7.10;99.90
5786;DHT22;2919;48.630;9.000;2023-04-25T00:48:48;7.00;99.90
5786;DHT22;2919;48.630;9.000;2023-04-25T00:51:17;7.10;99.90
5786;DHT22;2919;48.630;9.000;2023-04-25T00:53:45;7.10;99.90
5786;DHT22;2919;48.630;9.000;2023-04-25T00:56:11;7.10;99.90
5786;DHT22;2919;48.630;9.000;2023-04-25T00:58:38;7.10;99.90
5786;DHT22;2919;48.630;9.000;2023-04-25T01:01:06;7.10;99.90
5786;DHT22;2919;48.630;9.000;2023-04-25T01:03:33;7.20;99.90
5786;DHT22;2919;48.630;9.000;2023-04-25T01:06:02;7.20;99.90
5786;DHT22;2919;48.630;9.000;2023-04-25T01:08:28;7.30;99.90
5786;DHT22;2919;48.630;9.000;2023-04-25T01:10:54;7.20;99.90
5786;DHT22;2919;48.630;9.000;2023-04-25T01:13:19;7.30;99.90
5786;DHT22;2919;48.630;9.000;2023-04-25T01:15:45;7.20;99.90
5786;DHT22;2919;48.630;9.000;2023-04-25T01:18:12;7.10;99.90
5786;DHT22;2919;48.630;9.000;2023-04-25T01:20:38;7.20;99.90
5786;DHT22;2919;48.630;9.000;2023-04-25T01:23:06;7.10;99.90
5786;DHT22;2919;48.630;9.000;2023-04-25T01:25:31;7.20;99.90
5786;DHT22;2919;48.630;9.000;2023-04-25T01:27:57;7.20;99.90
5786;DHT22;2919;48.630;9.000;2023-04-25T01:30:27;7.20;99.90
5786;DHT22;2919;48.630;9.000;2023-04-25T01:32:55;7.20;99.90
5786;DHT22;2919;48.630;9.000;2023-04-25T01:35:21;7.10;99.90
5786;DHT22;2919;48.630;9.000;2023-04-25T01:37:49;7.00;99.90
5786;DHT22;2919;48.630;9.000;2023-04-25T01:40:15;7.00;99.90
5786;DHT22;2919;48.630;9.000;2023-04-25T01:42:42;7.00;99.90
5786;DHT22;2919;48.630;9.000;2023-04-25T01:45:09;6.90;99.90
5786;DHT22;2919;48.630;9.000;2023-04-25T01:47:36;6.90;99.90
5786;DHT22;2919;48.630;9.000;2023-04-25T01:50:03;6.90;99.90
5786;DHT22;2919;48.630;9.000;2023-04-25T01:52:29;6.90;99.90
5786;DHT22;2919;48.630;9.000;2023-04-25T01:54:57;6.90;99.90
5786;DHT22;2919;48.630;9.000;2023-04-25T01:57:23;6.90;99.90
5786;DHT22;2919;48.630;9.000;2023-04-25T01:59:49;6.90;99.90
5786;DHT22;2919;48.630;9.000;2023-04-25T02:02:15;6.80;99.90
5786;DHT22;2919;48.630;9.000;2023-04-25T02:04:40;6.90;99.90
5786;DHT22;2919;48.630;9.000;2023-04-25T02:07:06;6.90;99.90
5786;DHT22;2919;48.630;9.000;2023-04-25T02:09:32;6.90;99.90
5786;DHT22;2919;48.630;9.000;2023-04-25T02:11:58;6.90;99.90
5786;DHT22;2919;48.630;9.000;2023-04-25T02:14:23;6.90;99.90
5786;DHT22;2919;48.630;9.000;2023-04-25T02:16:49;6.90;99.90
5786;DHT22;2919;48.630;9.000;2023-04-25T02:19:16;6.90;99.90
5786;DHT22;2919;48.630;9.000;2023-04-25T02:21:42;6.80;99.90
5786;DHT22;2919;48.630;9.000;2023-04-25T02:24:08;6.80;99.90
5786;DHT22;2919;48.630;9.000;2023-04-25T02:26:33;6.80;99.90
5786;DHT22;2919;48.630;9.000;2023-04-25T02:28:59;6.80;99.90
5786;DHT22;2919;48.630;9.000;2023-04-25T02:31:25;6.70;99.90
5786;DHT22;2919;48.630;9.000;2023-04-25T02:33:51;6.70;99.90
5786;DHT22;2919;48.630;9.000;2023-04-25T02:36:17;6.60;99.90
5786;DHT22;2919;48.630;9.000;2023-04-25T02:38:42;6.70;99.90
5786;DHT22;2919;48.630;9.000;2023-04-25T02:41:08;6.70;99.90
5786;DHT22;2919;48.630;9.000;2023-04-25T02:43:33;6.70;99.90
5786;DHT22;2919;48.630;9.000;2023-04-25T02:45:59;6.60;99.90
5786;DHT22;2919;48.630;9.000;2023-04-25T02:48:24;6.70;99.90
5786;DHT22;2919;48.630;9.000;2023-04-25T02:50:50;6.70;99.90
5786;DHT22;2919;48.630;9.000;2023-04-25T02:53:16;6.70;99.90
5786;DHT22;2919;48.630;9.000;2023-04-25T02:55:41;6.70;99.90
5786;DHT22;2919;48.630;9.000;2023-04-25T02:58:07;6.70;99.90
5786;DHT22;2919;48.630;9.000;2023-04-25T03:00:32;6.70;99.90
5786;DHT22;2919;48.630;9.000;2023-04-25T03:02:58;6.70;99.90
5786;DHT22;2919;48.630;9.000;2023-04-25T03:05:24;6.70;99.90
5786;DHT22;2919;48.630;9.000;2023-04-25T03:07:49;6.70;99.90
5786;DHT22;2919;48.630;9.000;2023-04-25T03:10:15;6.70;99.90
5786;DHT22;2919;48.630;9.000;2023-04-25T03:12:40;6.70;99.90
5786;DHT22;2919;48.630;9.000;2023-04-25T03:15:06;6.70;99.90
5786;DHT22;2919;48.630;9.000;2023-04-25T03:17:32;6.70;99.90
5786;DHT22;2919;48.630;9.000;2023-04-25T03:19:58;6.70;99.90
5786;DHT22;2919;48.630;9.000;2023-04-25T03:22:24;6.80;99.90
5786;DHT22;2919;48.630;9.000;2023-04-25T03:24:50;6.80;99.90
5786;DHT22;2919;48.630;9.000;2023-04-25T03:27:16;6.80;99.90
5786;DHT22;2919;48.630;9.000;2023-04-25T03:29:41;6.80;99.90
5786;DHT22;2919;48.630;9.000;2023-04-25T03:32:07;6.70;99.90
5786;DHT22;2919;48.630;9.000;2023-04-25T03:34:32;6.70;99.90
5786;DHT22;2919;48.630;9.000;2023-04-25T03:36:58;6.70;99.90
5786;DHT22;2919;48.630;9.000;2023-04-25T03:39:25;6.70;99.90
5786;DHT22;2919;48.630;9.000;2023-04-25T03:41:50;6.60;99.90
5786;DHT22;2919;48.630;9.000;2023-04-25T03:44:16;6.50;99.90
5786;DHT22;2919;48.630;9.000;2023-04-25T03:46:42;6.50;99.90
5786;DHT22;2919;48.630;9.000;2023-04-25T03:49:07;6.40;99.90
5786;DHT22;2919;48.630;9.000;2023-04-25T03:51:33;6.50;99.90
5786;DHT22;2919;48.630;9.000;2023-04-25T03:53:58;6.50;99.90
5786;DHT22;2919;48.630;9.000;2023-04-25T03:56:24;6.40;99.90
5786;DHT22;2919;48.630;9.000;2023-04-25T03:58:50;6.40;99.90
5786;DHT22;2919;48.630;9.000;2023-04-25T04:01:15;6.30;99.90
5786;DHT22;2919;48.630;9.000;2023-04-25T04:03:41;6.30;99.90
5786;DHT22;2919;48.630;9.000;2023-04-25T04:06:07;6.20;99.90
5786;DHT22;2919;48.630;9.000;2023-04-25T04:08:34;6.20;99.90
5786;DHT22;2919;48.630;9.000;2023-04-25T04:11:00;6.20;99.90
5786;DHT22;2919;48.630;9.000;2023-04-25T04:13:26;6.10;99.90
5786;DHT22;2919;48.630;9.000;2023-04-25T04:15:52;6.10;99.90
5786;DHT22;2919;48.630;9.000;2023-04-25T04:18:18;6.10;99.90
5786;DHT22;2919;48.630;9.000;2023-04-25T04:20:43;6.00;99.90
5786;DHT22;2919;48.630;9.000;2023-04-25T04:23:09;6.00;99.90
5786;DHT22;2919;48.630;9.000;2023-04-25T04:25:36;5.90;99.90
5786;DHT22;2919;48.630;9.000;2023-04-25T04:28:02;5.90;99.90
5786;DHT22;2919;48.630;9.000;2023-04-25T04:30:28;5.80;99.90
5786;DHT22;2919;48.630;9.000;2023-04-25T04:32:57;5.80;99.90
5786;DHT22;2919;48.630;9.000;2023-04-25T04:35:23;5.80;99.90
5786;DHT22;2919;48.630;9.000;2023-04-25T04:37:49;5.70;99.90
5786;DHT22;2919;48.630;9.000;2023-04-25T04:40:15;5.70;99.90
5786;DHT22;2919;48.630;9.000;2023-04-25T04:42:42;5.80;99.90
5786;DHT22;2919;48.630;9.000;2023-04-25T04:45:08;5.80;99.90
5786;DHT22;2919;48.630;9.000;2023-04-25T04:47:35;5.90;99.90
5786;DHT22;2919;48.630;9.000;2023-04-25T04:50:08;5.90;99.90
5786;DHT22;2919;48.630;9.000;2023-04-25T04:52:35;6.00;99.90
5786;DHT22;2919;48.630;9.000;2023-04-25T04:55:02;6.10;99.90
5786;DHT22;2919;48.630;9.000;2023-04-25T04:57:28;6.10;99.90
5786;DHT22;2919;48.630;9.000;2023-04-25T04:59:54;6.20;99.90
5786;DHT22;2919;48.630;9.000;2023-04-25T05:02:20;6.30;99.90
5786;DHT22;2919;48.630;9.000;2023-04-25T05:04:46;6.30;99.90
5786;DHT22;2919;48.630;9.000;2023-04-25T05:07:12;6.40;99.90
5786;DHT22;2919;48.630;9.000;2023-04-25T05:09:37;6.40;99.90
5786;DHT22;2919;48.630;9.000;2023-04-25T05:12:03;6.40;99.90
5786;DHT22;2919;48.630;9.000;2023-04-25T05:14:29;6.40;99.90
5786;DHT22;2919;48.630;9.000;2023-04-25T05:16:54;6.50;99.90
5786;DHT22;2919;48.630;9.000;2023-04-25T05:19:20;6.50;99.90
5786;DHT22;2919;48.630;9.000;2023-04-25T05:21:46;6.40;99.90
5786;DHT22;2919;48.630;9.000;2023-04-25T05:24:11;6.30;99.90
5786;DHT22;2919;48.630;9.000;2023-04-25T05:26:37;6.30;99.90
5786;DHT22;2919;48.630;9.000;2023-04-25T05:29:03;6.30;99.90
5786;DHT22;2919;48.630;9.000;2023-04-25T05:31:29;6.40;99.90
5786;DHT22;2919;48.630;9.000;2023-04-25T05:33:54;6.50;99.90
5786;DHT22;2919;48.630;9.000;2023-04-25T05:36:20;6.50;99.90
5786;DHT22;2919;48.630;9.000;2023-04-25T05:38:46;6.60;99.90
5786;DHT22;2919;48.630;9.000;2023-04-25T05:41:12;6.60;99.90
5786;DHT22;2919;48.630;9.000;2023-04-25T05:43:37;6.60;99.90
5786;DHT22;2919;48.630;9.000;2023-04-25T05:46:03;6.60;99.90
5786;DHT22;2919;48.630;9.000;2023-04-25T05:48:30;6.70;99.90
5786;DHT22;2919;48.630;9.000;2023-04-25T05:50:55;6.70;99.90
5786;DHT22;2919;48.630;9.000;2023-04-25T05:53:21;6.80;99.90
5786;DHT22;2919;48.630;9.000;2023-04-25T05:55:47;6.80;99.90
5786;DHT22;2919;48.630;9.000;2023-04-25T05:58:13;6.90;99.90
5786;DHT22;2919;48.630;9.000;2023-04-25T06:00:38;6.90;99.90
5786;DHT22;2919;48.630;9.000;2023-04-25T06:03:04;7.00;99.90
5786;DHT22;2919;48.630;9.000;2023-04-25T06:05:30;7.00;99.90
5786;DHT22;2919;48.630;9.000;2023-04-25T06:07:55;7.10;99.90
5786;DHT22;2919;48.630;9.000;2023-04-25T06:10:21;7.20;99.90
5786;DHT22;2919;48.630;9.000;2023-04-25T06:12:48;7.20;99.90
5786;DHT22;2919;48.630;9.000;2023-04-25T06:15:13;7.30;99.90
5786;DHT22;2919;48.630;9.000;2023-04-25T06:17:39;7.30;99.90
5786;DHT22;2919;48.630;9.000;2023-04-25T06:20:05;7.40;99.90
5786;DHT22;2919;48.630;9.000;2023-04-25T06:22:31;7.40;99.90
5786;DHT22;2919;48.630;9.000;2023-04-25T06:24:57;7.50;99.90
5786;DHT22;2919;48.630;9.000;2023-04-25T06:27:24;7.50;99.90
5786;DHT22;2919;48.630;9.000;2023-04-25T06:29:49;7.50;99.90
5786;DHT22;2919;48.630;9.000;2023-04-25T06:32:15;7.50;99.90
5786;DHT22;2919;48.630;9.000;2023-04-25T06:34:41;7.50;99.90
5786;DHT22;2919;48.630;9.000;2023-04-25T06:37:06;7.40;99.90
5786;DHT22;2919;48.630;9.000;2023-04-25T06:39:32;7.40;99.90
5786;DHT22;2919;48.630;9.000;2023-04-25T06:41:57;7.40;99.90
5786;DHT22;2919;48.630;9.000;2023-04-25T06:44:23;7.30;99.90
5786;DHT22;2919;48.630;9.000;2023-04-25T06:46:51;7.30;99.90
5786;DHT22;2919;48.630;9.000;2023-04-25T06:49:17;7.20;99.90
5786;DHT22;2919;48.630;9.000;2023-04-25T06:51:42;7.10;99.90
5786;DHT22;2919;48.630;9.000;2023-04-25T06:54:08;7.10;99.90
5786;DHT22;2919;48.630;9.000;2023-04-25T06:56:34;7.00;99.90
5786;DHT22;2919;48.630;9.000;2023-04-25T06:58:59;7.00;99.90
5786;DHT22;2919;48.630;9.000;2023-04-25T07:01:26;6.90;99.90
5786;DHT22;2919;48.630;9.000;2023-04-25T07:03:51;6.80;99.90
5786;DHT22;2919;48.630;9.000;2023-04-25T07:06:17;6.80;99.90
5786;DHT22;2919;48.630;9.000;2023-04-25T07:08:43;6.70;99.90
5786;DHT22;2919;48.630;9.000;2023-04-25T07:11:08;6.60;99.90
5786;DHT22;2919;48.630;9.000;2023-04-25T07:13:34;6.50;99.90
5786;DHT22;2919;48.630;9.000;2023-04-25T07:16:00;6.50;99.90
5786;DHT22;2919;48.630;9.000;2023-04-25T07:18:25;6.40;99.90
5786;DHT22;2919;48.630;9.000;2023-04-25T07:20:51;6.40;99.90
5786;DHT22;2919;48.630;9.000;2023-04-25T07:23:17;6.40;99.90
5786;DHT22;2919;48.630;9.000;2023-04-25T07:25:42;6.30;99.90
5786;DHT22;2919;48.630;9.000;2023-04-25T07:28:08;6.30;99.90
5786;DHT22;2919;48.630;9.000;2023-04-25T07:30:33;6.30;99.90
5786;DHT22;2919;48.630;9.000;2023-04-25T07:33:00;6.40;99.90
5786;DHT22;2919;48.630;9.000;2023-04-25T07:35:26;6.40;99.90
5786;DHT22;2919;48.630;9.000;2023-04-25T07:37:51;6.40;99.90
5786;DHT22;2919;48.630;9.000;2023-04-25T07:40:17;6.40;99.90
5786;DHT22;2919;48.630;9.000;2023-04-25T07:42:42;6.40;99.90
5786;DHT22;2919;48.630;9.000;2023-04-25T07:45:08;6.30;99.90
5786;DHT22;2919;48.630;9.000;2023-04-25T07:47:35;6.40;99.90
5786;DHT22;2919;48.630;9.000;2023-04-25T07:50:01;6.40;99.90
5786;DHT22;2919;48.630;9.000;2023-04-25T07:52:26;6.40;99.90
5786;DHT22;2919;48.630;9.000;2023-04-25T07:54:52;6.40;99.90
5786;DHT22;2919;48.630;9.000;2023-04-25T07:57:18;6.30;99.90
5786;DHT22;2919;48.630;9.000;2023-04-25T07:59:44;6.30;99.90
5786;DHT22;2919;48.630;9.000;2023-04-25T08:02:10;6.30;99.90
5786;DHT22;2919;48.630;9.000;2023-04-25T08:04:36;6.30;99.90
5786;DHT22;2919;48.630;9.000;2023-04-25T08:07:01;6.30;99.90
5786;DHT22;2919;48.630;9.000;2023-04-25T08:09:27;6.30;99.90
5786;DHT22;2919;48.630;9.000;2023-04-25T08:11:53;6.30;99.90
5786;DHT22;2919;48.630;9.000;2023-04-25T08:14:18;6.30;99.90
5786;DHT22;2919;48.630;9.000;2023-04-25T08:16:44;6.10;99.90
5786;DHT22;2919;48.630;9.000;2023-04-25T08:19:10;6.10;99.90
5786;DHT22;2919;48.630;9.000;2023-04-25T08:21:36;6.00;99.90
5786;DHT22;2919;48.630;9.000;2023-04-25T08:24:02;5.90;99.90
5786;DHT22;2919;48.630;9.000;2023-04-25T08:26:28;5.90;99.90
5786;DHT22;2919;48.630;9.000;2023-04-25T08:28:54;5.90;99.90
5786;DHT22;2919;48.630;9.000;2023-04-25T08:31:19;6.00;99.90
5786;DHT22;2919;48.630;9.000;2023-04-25T08:33:46;5.90;99.90
5786;DHT22;2919;48.630;9.000;2023-04-25T08:36:11;5.80;99.90
5786;DHT22;2919;48.630;9.000;2023-04-25T08:38:37;5.70;99.90
5786;DHT22;2919;48.630;9.000;2023-04-25T08:41:03;5.80;99.90
5786;DHT22;2919;48.630;9.000;2023-04-25T08:43:30;5.80;99.90
5786;DHT22;2919;48.630;9.000;2023-04-25T08:46:00;5.80;99.90
5786;DHT22;2919;48.630;9.000;2023-04-25T08:48:32;5.80;99.90
5786;DHT22;2919;48.630;9.000;2023-04-25T08:50:58;5.70;99.90
5786;DHT22;2919;48.630;9.000;2023-04-25T08:53:29;5.80;99.90
5786;DHT22;2919;48.630;9.000;2023-04-25T08:55:56;5.80;99.90
5786;DHT22;2919;48.630;9.000;2023-04-25T08:58:22;5.80;99.90
5786;DHT22;2919;48.630;9.000;2023-04-25T09:00:48;5.80;99.90
5786;DHT22;2919;48.630;9.000;2023-04-25T09:03:15;5.80;99.90
5786;DHT22;2919;48.630;9.000;2023-04-25T09:05:41;5.80;99.90
5786;DHT22;2919;48.630;9.000;2023-04-25T09:08:07;5.80;99.90
5786;DHT22;2919;48.630;9.000;2023-04-25T09:10:33;5.90;99.90
5786;DHT22;2919;48.630;9.000;2023-04-25T09:13:10;5.80;99.90
5786;DHT22;2919;48.630;9.000;2023-04-25T09:15:49;5.80;99.90
5786;DHT22;2919;48.630;9.000;2023-04-25T09:20:56;5.70;99.90
5786;DHT22;2919;48.630;9.000;2023-04-25T09:23:22;5.70;99.90
5786;DHT22;2919;48.630;9.000;2023-04-25T09:25:50;5.60;99.90
5786;DHT22;2919;48.630;9.000;2023-04-25T09:28:16;5.60;99.90
5786;DHT22;2919;48.630;9.000;2023-04-25T09:30:42;5.50;99.90
5786;DHT22;2919;48.630;9.000;2023-04-25T09:33:11;5.50;99.90
5786;DHT22;2919;48.630;9.000;2023-04-25T09:35:47;5.50;99.90
5786;DHT22;2919;48.630;9.000;2023-04-25T09:38:18;5.50;99.90
5786;DHT22;2919;48.630;9.000;2023-04-25T09:40:45;5.60;99.90
5786;DHT22;2919;48.630;9.000;2023-04-25T09:43:21;5.50;99.90
5786;DHT22;2919;48.630;9.000;2023-04-25T09:45:47;5.50;99.90
5786;DHT22;2919;48.630;9.000;2023-04-25T09:48:20;5.40;99.90
5786;DHT22;2919;48.630;9.000;2023-04-25T09:51:10;5.40;99.90
5786;DHT22;2919;48.630;9.000;2023-04-25T09:53:37;5.40;99.90
5786;DHT22;2919;48.630;9.000;2023-04-25T09:56:07;5.30;99.90
5786;DHT22;2919;48.630;9.000;2023-04-25T09:58:35;5.30;99.90
5786;DHT22;2919;48.630;9.000;2023-04-25T10:01:05;5.30;99.90
5786;DHT22;2919;48.630;9.000;2023-04-25T10:03:32;5.30;99.90
5786;DHT22;2919;48.630;9.000;2023-04-25T10:06:04;5.10;99.90
5786;DHT22;2919;48.630;9.000;2023-04-25T10:08:33;5.20;99.90
5786;DHT22;2919;48.630;9.000;2023-04-25T10:11:01;5.20;99.90
5786;DHT22;2919;48.630;9.000;2023-04-25T10:13:29;5.20;99.90
5786;DHT22;2919;48.630;9.000;2023-04-25T10:16:00;5.30;99.90
5786;DHT22;2919;48.630;9.000;2023-04-25T10:18:27;5.40;99.90
5786;DHT22;2919;48.630;9.000;2023-04-25T10:20:58;5.40;99.90
5786;DHT22;2919;48.630;9.000;2023-04-25T10:23:24;5.40;99.90
5786;DHT22;2919;48.630;9.000;2023-04-25T10:25:52;5.50;99.90
5786;DHT22;2919;48.630;9.000;2023-04-25T10:28:18;5.50;99.90
5786;DHT22;2919;48.630;9.000;2023-04-25T10:33:36;5.50;99.90
5786;DHT22;2919;48.630;9.000;2023-04-25T10:36:10;5.60;99.90
5786;DHT22;2919;48.630;9.000;2023-04-25T10:38:36;5.70;99.90
5786;DHT22;2919;48.630;9.000;2023-04-25T10:41:04;5.60;99.90
5786;DHT22;2919;48.630;9.000;2023-04-25T10:43:41;5.70;99.90
5786;DHT22;2919;48.630;9.000;2023-04-25T10:46:15;5.70;99.90
5786;DHT22;2919;48.630;9.000;2023-04-25T10:48:48;5.70;99.90
5786;DHT22;2919;48.630;9.000;2023-04-25T10:51:28;5.80;99.90
5786;DHT22;2919;48.630;9.000;2023-04-25T10:54:06;5.80;99.90
5786;DHT22;2919;48.630;9.000;2023-04-25T10:56:33;5.90;99.90
5786;DHT22;2919;48.630;9.000;2023-04-25T10:59:12;6.00;99.90
5786;DHT22;2919;48.630;9.000;2023-04-25T11:01:43;6.00;99.90
5786;DHT22;2919;48.630;9.000;2023-04-25T11:09:30;6.10;99.90
5786;DHT22;2919;48.630;9.000;2023-04-25T11:11:59;6.30;99.90
5786;DHT22;2919;48.630;9.000;2023-04-25T11:14:26;6.10;99.90
5786;DHT22;2919;48.630;9.000;2023-04-25T11:16:56;6.00;99.90
5786;DHT22;2919;48.630;9.000;2023-04-25T11:19:23;6.10;99.90
5786;DHT22;2919;48.630;9.000;2023-04-25T11:21:49;5.90;99.90
5786;DHT22;2919;48.630;9.000;2023-04-25T11:24:16;6.00;99.90
5786;DHT22;2919;48.630;9.000;2023-04-25T11:26:43;6.00;99.90
5786;DHT22;2919;48.630;9.000;2023-04-25T11:29:11;6.10;99.90
5786;DHT22;2919;48.630;9.000;2023-04-25T11:31:37;6.20;99.90
5786;DHT22;2919;48.630;9.000;2023-04-25T11:34:03;6.20;99.90
5786;DHT22;2919;48.630;9.000;2023-04-25T11:36:28;6.40;99.90
5786;DHT22;2919;48.630;9.000;2023-04-25T11:38:54;6.40;99.90
5786;DHT22;2919;48.630;9.000;2023-04-25T11:41:20;6.50;99.90
5786;DHT22;2919;48.630;9.000;2023-04-25T11:43:47;6.50;99.90
5786;DHT22;2919;48.630;9.000;2023-04-25T11:46:13;6.40;99.90
5786;DHT22;2919;48.630;9.000;2023-04-25T11:48:40;6.40;99.90
5786;DHT22;2919;48.630;9.000;2023-04-25T11:51:06;6.30;99.90
5786;DHT22;2919;48.630;9.000;2023-04-25T11:53:32;6.30;99.90
5786;DHT22;2919;48.630;9.000;2023-04-25T11:55:58;6.20;99.90
5786;DHT22;2919;48.630;9.000;2023-04-25T11:58:24;6.10;99.90
5786;DHT22;2919;48.630;9.000;2023-04-25T12:00:50;6.10;99.90
5786;DHT22;2919;48.630;9.000;2023-04-25T12:03:17;6.10;99.90
5786;DHT22;2919;48.630;9.000;2023-04-25T12:05:45;6.10;99.90
5786;DHT22;2919;48.630;9.000;2023-04-25T12:08:15;6.20;99.90
5786;DHT22;2919;48.630;9.000;2023-04-25T12:10:42;6.20;99.90
5786;DHT22;2919;48.630;9.000;2023-04-25T12:13:26;6.20;99.90
5786;DHT22;2919;48.630;9.000;2023-04-25T12:15:56;6.30;99.90
5786;DHT22;2919;48.630;9.000;2023-04-25T12:18:25;6.40;99.90
5786;DHT22;2919;48.630;9.000;2023-04-25T12:20:54;6.40;99.90
5786;DHT22;2919;48.630;9.000;2023-04-25T12:23:29;6.40;99.90
5786;DHT22;2919;48.630;9.000;2023-04-25T12:25:55;6.30;99.90
5786;DHT22;2919;48.630;9.000;2023-04-25T12:28:23;6.30;99.90
5786;DHT22;2919;48.630;9.000;2023-04-25T12:33:29;6.30;99.90
5786;DHT22;2919;48.630;9.000;2023-04-25T12:35:55;6.40;99.90
5786;DHT22;2919;48.630;9.000;2023-04-25T12:38:29;6.30;99.90
5786;DHT22;2919;48.630;9.000;2023-04-25T12:40:56;6.40;99.90
5786;DHT22;2919;48.630;9.000;2023-04-25T12:43:22;6.40;99.90
5786;DHT22;2919;48.630;9.000;2023-04-25T12:45:49;6.40;99.90
5786;DHT22;2919;48.630;9.000;2023-04-25T12:48:18;6.40;99.90
5786;DHT22;2919;48.630;9.000;2023-04-25T12:50:44;6.40;99.90
5786;DHT22;2919;48.630;9.000;2023-04-25T12:53:11;6.50;99.90
5786;DHT22;2919;48.630;9.000;2023-04-25T12:55:37;6.50;99.90
5786;DHT22;2919;48.630;9.000;2023-04-25T12:58:03;6.50;99.90
5786;DHT22;2919;48.630;9.000;2023-04-25T13:00:29;6.60;99.90
5786;DHT22;2919;48.630;9.000;2023-04-25T13:02:55;6.70;99.90
5786;DHT22;2919;48.630;9.000;2023-04-25T13:05:21;6.80;99.90
5786;DHT22;2919;48.630;9.000;2023-04-25T13:07:46;6.80;99.90
5786;DHT22;2919;48.630;9.000;2023-04-25T13:10:12;7.00;99.90
5786;DHT22;2919;48.630;9.000;2023-04-25T13:12:37;7.30;99.90
5786;DHT22;2919;48.630;9.000;2023-04-25T13:15:03;7.60;99.90
5786;DHT22;2919;48.630;9.000;2023-04-25T13:17:29;7.70;99.90
5786;DHT22;2919;48.630;9.000;2023-04-25T13:19:55;7.80;99.90
5786;DHT22;2919;48.630;9.000;2023-04-25T13:22:20;7.90;99.90
5786;DHT22;2919;48.630;9.000;2023-04-25T13:24:46;8.00;99.90
5786;DHT22;2919;48.630;9.000;2023-04-25T13:27:12;8.10;99.90
5786;DHT22;2919;48.630;9.000;2023-04-25T13:29:38;8.10;99.90
5786;DHT22;2919;48.630;9.000;2023-04-25T13:32:06;8.20;99.90
5786;DHT22;2919;48.630;9.000;2023-04-25T13:34:32;8.10;99.90
5786;DHT22;2919;48.630;9.000;2023-04-25T13:36:58;8.00;99.90
5786;DHT22;2919;48.630;9.000;2023-04-25T13:39:23;7.90;99.90
5786;DHT22;2919;48.630;9.000;2023-04-25T13:41:49;8.00;99.90
5786;DHT22;2919;48.630;9.000;2023-04-25T13:44:15;8.10;99.90
5786;DHT22;2919;48.630;9.000;2023-04-25T13:46:40;8.10;99.90
5786;DHT22;2919;48.630;9.000;2023-04-25T13:49:06;8.30;99.90
5786;DHT22;2919;48.630;9.000;2023-04-25T13:51:32;8.20;99.90
5786;DHT22;2919;48.630;9.000;2023-04-25T13:53:57;8.20;99.90
5786;DHT22;2919;48.630;9.000;2023-04-25T13:56:23;8.20;99.90
5786;DHT22;2919;48.630;9.000;2023-04-25T13:58:50;8.20;99.90
5786;DHT22;2919;48.630;9.000;2023-04-25T14:01:17;8.20;99.90
5786;DHT22;2919;48.630;9.000;2023-04-25T14:03:43;8.40;99.90
5786;DHT22;2919;48.630;9.000;2023-04-25T14:06:08;8.30;99.90
5786;DHT22;2919;48.630;9.000;2023-04-25T14:08:34;8.30;99.90
5786;DHT22;2919;48.630;9.000;2023-04-25T14:11:00;8.40;99.90
5786;DHT22;2919;48.630;9.000;2023-04-25T14:13:26;8.70;99.90
5786;DHT22;2919;48.630;9.000;2023-04-25T14:15:52;8.90;99.90
5786;DHT22;2919;48.630;9.000;2023-04-25T14:18:18;8.70;99.90
5786;DHT22;2919;48.630;9.000;2023-04-25T14:20:44;8.70;99.90
5786;DHT22;2919;48.630;9.000;2023-04-25T14:23:10;8.60;99.90
5786;DHT22;2919;48.630;9.000;2023-04-25T14:25:35;8.60;99.90
5786;DHT22;2919;48.630;9.000;2023-04-25T14:28:01;8.50;99.90
5786;DHT22;2919;48.630;9.000;2023-04-25T14:30:27;8.50;99.90
5786;DHT22;2919;48.630;9.000;2023-04-25T14:32:53;8.50;99.90
5786;DHT22;2919;48.630;9.000;2023-04-25T14:35:19;8.50;99.90
5786;DHT22;2919;48.630;9.000;2023-04-25T14:37:45;8.60;99.90
5786;DHT22;2919;48.630;9.000;2023-04-25T14:40:11;8.70;99.90
5786;DHT22;2919;48.630;9.000;2023-04-25T14:42:41;8.80;99.90
5786;DHT22;2919;48.630;9.000;2023-04-25T14:45:08;8.90;99.90
5786;DHT22;2919;48.630;9.000;2023-04-25T14:47:34;9.00;99.90
5786;DHT22;2919;48.630;9.000;2023-04-25T14:50:00;9.10;99.90
5786;DHT22;2919;48.630;9.000;2023-04-25T14:52:26;9.40;99.90
5786;DHT22;2919;48.630;9.000;2023-04-25T14:54:52;9.70;99.90
5786;DHT22;2919;48.630;9.000;2023-04-25T14:57:18;9.80;99.90
5786;DHT22;2919;48.630;9.000;2023-04-25T14:59:43;9.80;99.90
5786;DHT22;2919;48.630;9.000;2023-04-25T15:02:09;9.70;99.90
5786;DHT22;2919;48.630;9.000;2023-04-25T15:04:36;9.70;99.90
5786;DHT22;2919;48.630;9.000;2023-04-25T15:07:01;9.50;99.90
5786;DHT22;2919;48.630;9.000;2023-04-25T15:09:27;9.40;99.90
5786;DHT22;2919;48.630;9.000;2023-04-25T15:11:53;9.60;99.90
5786;DHT22;2919;48.630;9.000;2023-04-25T15:14:18;9.70;99.90
5786;DHT22;2919;48.630;9.000;2023-04-25T15:16:44;9.70;99.90
5786;DHT22;2919;48.630;9.000;2023-04-25T15:19:09;9.90;99.90
5786;DHT22;2919;48.630;9.000;2023-04-25T15:21:36;10.10;99.90
5786;DHT22;2919;48.630;9.000;2023-04-25T15:24:01;10.30;99.90
5786;DHT22;2919;48.630;9.000;2023-04-25T15:26:27;10.40;99.90
5786;DHT22;2919;48.630;9.000;2023-04-25T15:28:53;10.30;99.90
5786;DHT22;2919;48.630;9.000;2023-04-25T15:31:19;10.30;99.90
5786;DHT22;2919;48.630;9.000;2023-04-25T15:33:44;10.30;99.90
5786;DHT22;2919;48.630;9.000;2023-04-25T15:36:10;10.40;99.90
5786;DHT22;2919;48.630;9.000;2023-04-25T15:38:36;10.40;99.90
5786;DHT22;2919;48.630;9.000;2023-04-25T15:41:02;10.50;99.60
5786;DHT22;2919;48.630;9.000;2023-04-25T15:43:28;10.50;98.70
5786;DHT22;2919;48.630;9.000;2023-04-25T15:45:54;10.30;98.50
5786;DHT22;2919;48.630;9.000;2023-04-25T15:48:20;10.20;97.70
5786;DHT22;2919;48.630;9.000;2023-04-25T15:50:46;10.10;98.60
5786;DHT22;2919;48.630;9.000;2023-04-25T15:53:12;9.90;99.90
5786;DHT22;2919;48.630;9.000;2023-04-25T15:55:38;9.70;99.70
5786;DHT22;2919;48.630;9.000;2023-04-25T15:58:04;9.50;99.90
5786;DHT22;2919;48.630;9.000;2023-04-25T16:00:29;9.50;99.90
5786;DHT22;2919;48.630;9.000;2023-04-25T16:02:56;9.50;99.90
5786;DHT22;2919;48.630;9.000;2023-04-25T16:05:21;9.40;99.90
5786;DHT22;2919;48.630;9.000;2023-04-25T16:07:47;9.40;99.90
5786;DHT22;2919;48.630;9.000;2023-04-25T16:10:13;9.40;99.90
5786;DHT22;2919;48.630;9.000;2023-04-25T16:12:44;9.40;99.90
5786;DHT22;2919;48.630;9.000;2023-04-25T16:15:12;9.50;99.90
5786;DHT22;2919;48.630;9.000;2023-04-25T16:17:38;9.50;99.90
5786;DHT22;2919;48.630;9.000;2023-04-25T16:20:04;9.50;99.90
5786;DHT22;2919;48.630;9.000;2023-04-25T16:22:40;9.40;99.90
5786;DHT22;2919;48.630;9.000;2023-04-25T16:25:07;9.40;99.90